Time;durP1;ratioP1;P1;durP2;ratioP2;P2;SDS_P1;SDS_P2;PMS_P1;PMS_P2;Temp;Humidity;BMP_temperature;BMP_pressure;BME280_temperature;BME280_humidity;BME280_pressure;Samples;Min_cycle;Max_cycle;Signal;HPM_P1;HPM_P2
2023/07/06 00:02:13;;;;;;;1.10;1.00;;;;;;;;;;7299449;19;140820;-75
2023/07/06 00:04:40;;;;;;;1.45;1.20;;;;;;;;;;7299148;19;140383;-75
2023/07/06 00:07:08;;;;;;;1.48;0.93;;;;;;;;;;7299097;19;140458;-75
2023/07/06 00:09:35;;;;;;;1.58;1.20;;;;;;;;;;7297788;19;141505;-74
2023/07/06 00:12:02;;;;;;;1.92;1.13;;;;;;;;;;7298224;19;143046;-74
2023/07/06 00:14:30;;;;;;;1.48;1.05;;;;;;;;;;7299095;19;140651;-74
2023/07/06 00:17:26;;;;;;;1.80;1.08;;;;;;;;;;7305278;19;140546;-75
2023/07/06 00:19:53;;;;;;;2.00;1.10;;;;;;;;;;7304054;19;142803;-75
2023/07/06 00:22:21;;;;;;;1.45;1.00;;;;;;;;;;7305693;19;141968;-75
2023/07/06 00:24:48;;;;;;;2.10;1.13;;;;;;;;;;7305602;19;140738;-75
2023/07/06 00:27:15;;;;;;;2.45;1.00;;;;;;;;;;7305034;19;140392;-74
2023/07/06 00:29:56;;;;;;;1.50;1.10;;;;;;;;;;7305527;19;142716;-74
2023/07/06 00:32:28;;;;;;;1.73;1.15;;;;;;;;;;7303992;19;141914;-74
2023/07/06 00:34:56;;;;;;;2.50;1.13;;;;;;;;;;7305333;19;140635;-75
2023/07/06 00:37:23;;;;;;;1.15;0.98;;;;;;;;;;7305524;19;140455;-74
2023/07/06 00:39:51;;;;;;;2.10;1.23;;;;;;;;;;7304304;19;140770;-76
2023/07/06 00:42:22;;;;;;;1.20;0.93;;;;;;;;;;7304338;19;142138;-75
2023/07/06 00:44:58;;;;;;;1.98;1.10;;;;;;;;;;7304514;19;141691;-76
2023/07/06 00:47:38;;;;;;;1.70;1.00;;;;;;;;;;7304893;19;140470;-75
2023/07/06 00:50:10;;;;;;;1.15;1.05;;;;;;;;;;7304934;19;142200;-74
2023/07/06 00:52:44;;;;;;;1.77;1.10;;;;;;;;;;7304862;19;142052;-74
2023/07/06 00:55:12;;;;;;;1.67;1.00;;;;;;;;;;7304734;19;140551;-75
2023/07/06 00:57:42;;;;;;;1.30;1.00;;;;;;;;;;7304753;19;140671;-74
2023/07/06 01:00:13;;;;;;;1.60;1.10;;;;;;;;;;7304763;19;141977;-73
2023/07/06 01:02:41;;;;;;;2.00;0.90;;;;;;;;;;7304365;19;142619;-75
2023/07/06 01:05:10;;;;;;;3.00;1.35;;;;;;;;;;7305123;19;140579;-74
2023/07/06 01:07:42;;;;;;;1.70;1.10;;;;;;;;;;7303365;19;140789;-73
2023/07/06 01:10:09;;;;;;;1.83;1.27;;;;;;;;;;7303256;19;142148;-74
2023/07/06 01:12:37;;;;;;;1.95;1.10;;;;;;;;;;7303829;19;141845;-74
2023/07/06 01:15:06;;;;;;;1.10;0.98;;;;;;;;;;7303614;19;140962;-75
2023/07/06 01:17:50;;;;;;;2.35;1.08;;;;;;;;;;7302519;19;140659;-74
2023/07/06 01:20:30;;;;;;;1.35;0.90;;;;;;;;;;7304515;19;141080;-74
2023/07/06 01:23:10;;;;;;;;;;;;;;;;;;7304038;19;141455;-75
2023/07/06 01:26:14;;;;;;;1.10;0.90;;;;;;;;;;7301783;19;140912;-74
2023/07/06 01:28:45;;;;;;;0.88;0.80;;;;;;;;;;7303806;19;140637;-74
2023/07/06 01:31:21;;;;;;;;;;;;;;;;;;7304117;19;142413;-74
2023/07/06 01:34:14;;;;;;;2.03;1.20;;;;;;;;;;7302540;19;149883;-74
2023/07/06 01:36:56;;;;;;;1.67;1.10;;;;;;;;;;7303478;19;140585;-73
2023/07/06 01:39:28;;;;;;;1.55;1.10;;;;;;;;;;7306941;19;140668;-73
2023/07/06 01:42:25;;;;;;;2.08;1.30;;;;;;;;;;7302824;19;140543;-73
2023/07/06 01:44:56;;;;;;;1.77;1.10;;;;;;;;;;7300661;19;142611;-74
2023/07/06 01:47:26;;;;;;;1.00;0.93;;;;;;;;;;7303358;19;140783;-73
2023/07/06 01:49:53;;;;;;;1.02;0.93;;;;;;;;;;7303002;19;140400;-73
2023/07/06 01:52:34;;;;;;;1.50;0.93;;;;;;;;;;7302507;19;141500;-74
2023/07/06 01:55:10;;;;;;;2.05;0.90;;;;;;;;;;7302296;19;142790;-75
2023/07/06 01:58:17;;;;;;;1.25;1.00;;;;;;;;;;7302812;19;140645;-75
2023/07/06 02:00:53;;;;;;;1.27;1.00;;;;;;;;;;7303116;19;140625;-75
2023/07/06 02:03:24;;;;;;;1.08;0.90;;;;;;;;;;7300947;19;141246;-74
2023/07/06 02:05:52;;;;;;;0.80;0.80;;;;;;;;;;7301515;19;141829;-74
2023/07/06 02:08:23;;;;;;;1.52;0.93;;;;;;;;;;7302165;19;141483;-74
2023/07/06 02:10:50;;;;;;;2.40;0.90;;;;;;;;;;7302000;19;140726;-74
2023/07/06 02:13:18;;;;;;;2.30;1.10;;;;;;;;;;7301910;19;142009;-75
2023/07/06 02:15:45;;;;;;;1.05;0.90;;;;;;;;;;7301816;19;142926;-74
2023/07/06 02:18:12;;;;;;;1.88;0.90;;;;;;;;;;7302348;19;141161;-74
2023/07/06 02:20:39;;;;;;;0.98;0.88;;;;;;;;;;7302441;19;140750;-74
2023/07/06 02:23:08;;;;;;;1.20;0.90;;;;;;;;;;7301773;19;141537;-74
2023/07/06 02:25:35;;;;;;;1.20;0.90;;;;;;;;;;7300944;19;142880;-74
2023/07/06 02:28:03;;;;;;;1.27;0.88;;;;;;;;;;7301957;19;140579;-74
2023/07/06 02:30:30;;;;;;;1.23;0.80;;;;;;;;;;7302491;19;140813;-74
2023/07/06 02:32:57;;;;;;;0.93;0.82;;;;;;;;;;7300967;19;141308;-74
2023/07/06 02:35:25;;;;;;;0.85;0.80;;;;;;;;;;7299679;19;141914;-74
2023/07/06 02:37:52;;;;;;;1.17;0.88;;;;;;;;;;7301287;19;140720;-74
2023/07/06 02:40:20;;;;;;;0.93;0.73;;;;;;;;;;7301239;19;140785;-74
2023/07/06 02:42:48;;;;;;;0.93;0.85;;;;;;;;;;7301610;19;142084;-73
2023/07/06 02:45:17;;;;;;;1.20;0.90;;;;;;;;;;7300759;19;142039;-74
2023/07/06 02:47:45;;;;;;;1.17;0.80;;;;;;;;;;7301451;19;141063;-74
2023/07/06 02:50:12;;;;;;;1.95;1.13;;;;;;;;;;7304297;19;140552;-74
2023/07/06 02:52:42;;;;;;;1.83;0.98;;;;;;;;;;7301351;19;140937;-74
2023/07/06 02:55:09;;;;;;;0.70;0.70;;;;;;;;;;7300835;19;140786;-74
2023/07/06 02:57:40;;;;;;;1.25;0.80;;;;;;;;;;7300835;19;140770;-74
2023/07/06 03:00:14;;;;;;;0.90;0.80;;;;;;;;;;7300840;19;140790;-74
2023/07/06 03:02:44;;;;;;;1.75;1.05;;;;;;;;;;7300846;19;141283;-74
2023/07/06 03:05:11;;;;;;;2.05;0.95;;;;;;;;;;7300793;19;142123;-74
2023/07/06 03:07:39;;;;;;;0.80;0.80;;;;;;;;;;7300678;19;140686;-74
2023/07/06 03:10:08;;;;;;;1.02;0.80;;;;;;;;;;7300737;19;140393;-74
2023/07/06 03:12:39;;;;;;;0.77;0.77;;;;;;;;;;7298550;19;141262;-74
2023/07/06 03:15:12;;;;;;;1.73;0.95;;;;;;;;;;7299787;19;142101;-74
2023/07/06 03:17:40;;;;;;;1.00;0.85;;;;;;;;;;7300781;19;140629;-75
2023/07/06 03:20:15;;;;;;;1.25;0.90;;;;;;;;;;7300085;19;140669;-74
2023/07/06 03:22:45;;;;;;;0.80;0.80;;;;;;;;;;7300652;19;140594;-75
2023/07/06 03:25:13;;;;;;;1.38;0.95;;;;;;;;;;7300744;19;140765;-75
2023/07/06 03:27:41;;;;;;;2.08;0.70;;;;;;;;;;7298067;19;140556;-75
2023/07/06 03:30:10;;;;;;;1.42;0.90;;;;;;;;;;7299913;19;140417;-75
2023/07/06 03:32:37;;;;;;;0.60;0.60;;;;;;;;;;7300019;19;141477;-75
2023/07/06 03:35:06;;;;;;;0.90;0.80;;;;;;;;;;7300202;19;141401;-74
2023/07/06 03:37:33;;;;;;;1.63;0.85;;;;;;;;;;7300032;19;140670;-75
2023/07/06 03:40:01;;;;;;;1.42;0.70;;;;;;;;;;7300281;19;140586;-74
2023/07/06 03:42:28;;;;;;;1.85;0.93;;;;;;;;;;7298545;19;141456;-74
2023/07/06 03:44:55;;;;;;;1.23;0.70;;;;;;;;;;7300211;19;141676;-75
2023/07/06 03:47:23;;;;;;;1.38;1.00;;;;;;;;;;7298551;19;140714;-74
2023/07/06 03:49:52;;;;;;;0.98;0.88;;;;;;;;;;7301206;19;140877;-75
2023/07/06 03:52:19;;;;;;;1.10;0.80;;;;;;;;;;7306543;19;141459;-74
2023/07/06 03:54:47;;;;;;;1.77;1.00;;;;;;;;;;7306369;19;141892;-74
2023/07/06 03:57:16;;;;;;;1.30;0.90;;;;;;;;;;7305952;19;140516;-74
2023/07/06 03:59:43;;;;;;;0.93;0.90;;;;;;;;;;7306637;19;140415;-74
2023/07/06 04:02:10;;;;;;;1.20;0.80;;;;;;;;;;7306346;19;142227;-74
2023/07/06 04:04:40;;;;;;;0.80;0.80;;;;;;;;;;7307106;19;142357;-74
2023/07/06 04:07:10;;;;;;;1.30;1.00;;;;;;;;;;7305988;19;140426;-75
2023/07/06 04:09:38;;;;;;;1.23;0.85;;;;;;;;;;7306746;19;140620;-75
2023/07/06 04:12:07;;;;;;;0.82;0.70;;;;;;;;;;7305225;19;142900;-75
2023/07/06 04:14:35;;;;;;;0.77;0.70;;;;;;;;;;7305983;19;143366;-75
2023/07/06 04:17:03;;;;;;;0.57;0.57;;;;;;;;;;7304283;19;140459;-74
2023/07/06 04:19:30;;;;;;;0.80;0.70;;;;;;;;;;7305495;19;141188;-75
2023/07/06 04:21:58;;;;;;;1.02;0.77;;;;;;;;;;7305997;19;141651;-75
2023/07/06 04:24:31;;;;;;;1.45;0.82;;;;;;;;;;7305451;19;142852;-74
2023/07/06 04:27:01;;;;;;;0.80;0.70;;;;;;;;;;7304964;19;140596;-73
2023/07/06 04:29:29;;;;;;;0.80;0.80;;;;;;;;;;7306376;19;140868;-76
2023/07/06 04:31:56;;;;;;;0.70;0.70;;;;;;;;;;7305006;19;141966;-75
2023/07/06 04:34:24;;;;;;;1.27;0.77;;;;;;;;;;7303990;19;142017;-76
2023/07/06 04:36:51;;;;;;;1.40;0.95;;;;;;;;;;7305901;19;140453;-75
2023/07/06 04:39:18;;;;;;;1.02;0.88;;;;;;;;;;7305220;19;140688;-75
2023/07/06 04:41:45;;;;;;;0.75;0.70;;;;;;;;;;7304532;19;141636;-72
2023/07/06 04:44:13;;;;;;;1.10;0.90;;;;;;;;;;7305339;19;141855;-73
2023/07/06 04:46:40;;;;;;;0.98;0.77;;;;;;;;;;7304799;19;140720;-72
2023/07/06 04:49:07;;;;;;;1.02;0.88;;;;;;;;;;7305070;19;140676;-73
2023/07/06 04:51:37;;;;;;;1.23;0.80;;;;;;;;;;7305148;19;142068;-72
2023/07/06 04:54:05;;;;;;;0.98;0.70;;;;;;;;;;7304536;19;141959;-73
2023/07/06 04:56:32;;;;;;;0.68;0.68;;;;;;;;;;7304560;19;140566;-73
2023/07/06 04:58:59;;;;;;;1.60;0.77;;;;;;;;;;7304974;19;140610;-73
2023/07/06 05:01:29;;;;;;;0.77;0.77;;;;;;;;;;7301682;19;141959;-73
2023/07/06 05:03:57;;;;;;;1.45;0.90;;;;;;;;;;7304242;19;141951;-73
2023/07/06 05:06:25;;;;;;;1.00;0.80;;;;;;;;;;7304302;19;140423;-73
2023/07/06 05:08:53;;;;;;;0.95;0.80;;;;;;;;;;7305432;19;140672;-73
2023/07/06 05:11:20;;;;;;;1.20;0.90;;;;;;;;;;7303686;19;141485;-73
2023/07/06 05:13:48;;;;;;;0.82;0.82;;;;;;;;;;7303660;19;141843;-73
2023/07/06 05:16:23;;;;;;;1.52;0.80;;;;;;;;;;7304547;19;140510;-75
2023/07/06 05:18:50;;;;;;;1.55;0.90;;;;;;;;;;7304169;19;140706;-76
2023/07/06 05:21:18;;;;;;;1.10;0.80;;;;;;;;;;7303845;19;141000;-74
2023/07/06 05:23:45;;;;;;;1.38;1.05;;;;;;;;;;7303629;19;142138;-75
2023/07/06 05:26:13;;;;;;;2.42;1.20;;;;;;;;;;7303941;19;140710;-74
2023/07/06 05:28:40;;;;;;;2.55;1.00;;;;;;;;;;7303583;19;140463;-74
2023/07/06 05:31:07;;;;;;;1.40;0.80;;;;;;;;;;7303621;19;141786;-74
2023/07/06 05:33:34;;;;;;;1.42;0.90;;;;;;;;;;7303184;19;142482;-74
2023/07/06 05:36:02;;;;;;;1.10;0.90;;;;;;;;;;7303582;19;140403;-74
2023/07/06 05:38:29;;;;;;;1.25;0.90;;;;;;;;;;7303892;19;140929;-74
2023/07/06 05:41:01;;;;;;;0.75;0.73;;;;;;;;;;7303292;19;141398;-73
2023/07/06 05:43:29;;;;;;;1.52;0.90;;;;;;;;;;7302071;19;142006;-73
2023/07/06 05:45:56;;;;;;;1.27;0.90;;;;;;;;;;7306319;19;140749;-73
2023/07/06 05:48:24;;;;;;;1.48;0.82;;;;;;;;;;7303573;19;140647;-74
2023/07/06 05:50:51;;;;;;;1.80;0.88;;;;;;;;;;7302582;19;140620;-73
2023/07/06 05:53:19;;;;;;;1.63;0.90;;;;;;;;;;7303022;19;142789;-73
2023/07/06 05:55:46;;;;;;;1.80;1.05;;;;;;;;;;7302838;19;140714;-73
2023/07/06 05:58:16;;;;;;;1.80;1.00;;;;;;;;;;7301920;19;140466;-73
2023/07/06 06:00:43;;;;;;;1.50;0.95;;;;;;;;;;7301564;19;142923;-73
2023/07/06 06:03:11;;;;;;;1.73;0.90;;;;;;;;;;7302411;19;142484;-73
2023/07/06 06:05:39;;;;;;;1.33;0.90;;;;;;;;;;7302786;19;140483;-73
2023/07/06 06:08:07;;;;;;;1.23;0.88;;;;;;;;;;7302855;19;140623;-73
2023/07/06 06:10:34;;;;;;;1.88;1.00;;;;;;;;;;7301856;19;140833;-73
2023/07/06 06:13:02;;;;;;;1.40;0.98;;;;;;;;;;7300839;19;142904;-73
2023/07/06 06:15:29;;;;;;;1.63;1.02;;;;;;;;;;7302063;19;140566;-73
2023/07/06 06:17:57;;;;;;;2.30;0.80;;;;;;;;;;7302200;19;140343;-73
2023/07/06 06:20:24;;;;;;;0.88;0.70;;;;;;;;;;7301480;19;141585;-73
2023/07/06 06:22:51;;;;;;;1.35;1.00;;;;;;;;;;7301544;19;142482;-74
2023/07/06 06:25:19;;;;;;;2.03;1.10;;;;;;;;;;7302055;19;140593;-73
2023/07/06 06:27:46;;;;;;;1.73;0.75;;;;;;;;;;7301123;19;140746;-74
2023/07/06 06:30:15;;;;;;;1.65;1.00;;;;;;;;;;7301435;19;141249;-73
2023/07/06 06:32:43;;;;;;;1.05;0.95;;;;;;;;;;7301305;19;142024;-73
2023/07/06 06:35:33;;;;;;;1.80;0.90;;;;;;;;;;7301371;19;140637;-73
2023/07/06 06:38:05;;;;;;;1.48;0.80;;;;;;;;;;7301319;19;140818;-73
2023/07/06 06:40:36;;;;;;;1.17;0.80;;;;;;;;;;7301051;19;140749;-73
2023/07/06 06:43:04;;;;;;;2.05;1.20;;;;;;;;;;7300821;19;141950;-74
2023/07/06 06:45:32;;;;;;;3.22;1.40;;;;;;;;;;7301478;19;140660;-74
2023/07/06 06:48:01;;;;;;;0.98;0.90;;;;;;;;;;7299910;19;140805;-74
2023/07/06 06:50:29;;;;;;;2.92;1.38;;;;;;;;;;7302193;19;141437;-74
2023/07/06 06:52:56;;;;;;;3.65;1.20;;;;;;;;;;7299177;19;140792;-75
2023/07/06 06:55:23;;;;;;;2.90;1.10;;;;;;;;;;7299719;19;140561;-75
2023/07/06 06:57:50;;;;;;;1.25;1.10;;;;;;;;;;7301070;19;142563;-74
2023/07/06 07:00:18;;;;;;;1.98;1.27;;;;;;;;;;7299963;19;140554;-73
2023/07/06 07:02:46;;;;;;;3.63;1.85;;;;;;;;;;7300733;19;140665;-74
2023/07/06 07:05:15;;;;;;;2.28;1.02;;;;;;;;;;7300792;19;140414;-74
2023/07/06 07:07:43;;;;;;;1.80;1.10;;;;;;;;;;7300600;19;140769;-73
2023/07/06 07:10:10;;;;;;;1.70;1.25;;;;;;;;;;7299895;19;141364;-72
2023/07/06 07:12:46;;;;;;;3.17;1.20;;;;;;;;;;7299605;19;142120;-74
2023/07/06 07:15:14;;;;;;;2.42;1.15;;;;;;;;;;7300659;19;140429;-74
2023/07/06 07:17:44;;;;;;;3.42;1.77;;;;;;;;;;7300593;19;140597;-74
2023/07/06 07:20:13;;;;;;;;;;;;;;;;;;7301723;19;140444;-73
2023/07/06 07:22:41;;;;;;;3.15;1.80;;;;;;;;;;7300141;19;141320;-73
2023/07/06 07:25:08;;;;;;;2.70;1.70;;;;;;;;;;7302197;19;140606;-72
2023/07/06 07:27:35;;;;;;;2.83;1.55;;;;;;;;;;7306391;19;140892;-73
2023/07/06 07:30:04;;;;;;;3.92;1.77;;;;;;;;;;7305774;19;141627;-73
2023/07/06 07:32:33;;;;;;;3.35;1.90;;;;;;;;;;7303618;19;142853;-72
2023/07/06 07:35:01;;;;;;;3.03;1.70;;;;;;;;;;7303076;19;140463;-72
2023/07/06 07:37:28;;;;;;;3.30;1.83;;;;;;;;;;7303033;19;140770;-72
2023/07/06 07:39:56;;;;;;;4.95;1.77;;;;;;;;;;7303874;19;141286;-72
2023/07/06 07:42:25;;;;;;;2.13;1.60;;;;;;;;;;7303242;19;142005;-72
2023/07/06 07:44:53;;;;;;;2.35;1.63;;;;;;;;;;7304177;19;140756;-73
2023/07/06 07:47:20;;;;;;;2.28;1.73;;;;;;;;;;7307062;19;140460;-73
2023/07/06 07:49:47;;;;;;;3.88;1.90;;;;;;;;;;7304784;19;140631;-73
2023/07/06 07:52:15;;;;;;;2.47;1.73;;;;;;;;;;7304890;19;142551;-73
2023/07/06 07:54:43;;;;;;;3.67;2.00;;;;;;;;;;7306164;19;140632;-73
2023/07/06 07:57:14;;;;;;;3.47;1.98;;;;;;;;;;7306065;19;140546;-74
2023/07/06 07:59:41;;;;;;;4.32;2.25;;;;;;;;;;7306628;19;141180;-74
2023/07/06 08:02:09;;;;;;;3.55;1.90;;;;;;;;;;7306021;19;143146;-76
2023/07/06 08:04:36;;;;;;;2.90;1.80;;;;;;;;;;7305178;19;140764;-74
2023/07/06 08:07:06;;;;;;;3.47;1.90;;;;;;;;;;7306195;19;140659;-75
2023/07/06 08:09:33;;;;;;;2.53;1.90;;;;;;;;;;7305536;19;142039;-73
2023/07/06 08:12:07;;;;;;;2.10;1.80;;;;;;;;;;7305803;19;141273;-80
2023/07/06 08:14:41;;;;;;;3.92;1.85;;;;;;;;;;7304950;19;140646;-78
2023/07/06 08:17:10;;;;;;;2.47;1.80;;;;;;;;;;7305992;19;140327;-79
2023/07/06 08:19:38;;;;;;;2.53;1.83;;;;;;;;;;7304432;19;140617;-78
2023/07/06 08:22:26;;;;;;;4.20;2.30;;;;;;;;;;7305275;19;145033;-79
2023/07/06 08:24:53;;;;;;;3.10;1.98;;;;;;;;;;7306593;19;140809;-78
2023/07/06 08:27:20;;;;;;;3.17;2.22;;;;;;;;;;7303130;19;140638;-72
2023/07/06 08:29:49;;;;;;;3.55;2.08;;;;;;;;;;7305380;19;142835;-79
2023/07/06 08:32:19;;;;;;;3.28;2.05;;;;;;;;;;7304029;19;144630;-75
2023/07/06 08:34:48;;;;;;;2.20;1.98;;;;;;;;;;7305595;19;140512;-78
2023/07/06 08:37:18;;;;;;;2.15;1.73;;;;;;;;;;7301385;19;140529;-81
2023/07/06 08:39:46;;;;;;;3.38;2.00;;;;;;;;;;7304034;19;141141;-78
2023/07/06 08:42:18;;;;;;;2.95;1.88;;;;;;;;;;7303588;19;142613;-77
2023/07/06 08:44:51;;;;;;;3.45;1.85;;;;;;;;;;7302547;19;140691;-77
2023/07/06 08:47:19;;;;;;;2.60;1.98;;;;;;;;;;7305118;19;140432;-81
2023/07/06 08:49:46;;;;;;;2.58;1.90;;;;;;;;;;7304659;19;141254;-81
2023/07/06 08:52:15;;;;;;;2.17;1.90;;;;;;;;;;7303225;19;142561;-80
2023/07/06 08:54:50;;;;;;;2.72;1.70;;;;;;;;;;7305476;19;140581;-82
2023/07/06 08:57:32;;;;;;;4.32;2.10;;;;;;;;;;7303363;19;140760;-78
2023/07/06 09:00:00;;;;;;;3.83;1.98;;;;;;;;;;7304396;19;141670;-79
2023/07/06 09:02:30;;;;;;;2.42;2.00;;;;;;;;;;7304734;19;140891;-78
2023/07/06 09:05:01;;;;;;;1.98;1.80;;;;;;;;;;7303694;19;140501;-81
2023/07/06 09:07:36;;;;;;;3.20;1.95;;;;;;;;;;7304819;19;140741;-81
2023/07/06 09:10:12;;;;;;;3.60;1.90;;;;;;;;;;7304219;19;141626;-85
2023/07/06 09:12:53;;;;;;;2.53;1.88;;;;;;;;;;7303650;19;142864;-82
2023/07/06 09:15:40;;;;;;;;;;;;;;;;;;7305015;19;141074;-83
2023/07/06 09:18:15;;;;;;;3.17;2.10;;;;;;;;;;7305517;19;140532;-82
2023/07/06 09:20:45;;;;;;;2.70;2.08;;;;;;;;;;7304512;19;142250;-81
2023/07/06 09:23:14;;;;;;;2.90;2.07;;;;;;;;;;7304063;19;142019;-81
2023/07/06 09:25:45;;;;;;;2.23;2.03;;;;;;;;;;7304228;19;140746;-81
2023/07/06 09:28:23;;;;;;;1.67;1.48;;;;;;;;;;7300534;19;140730;-84
2023/07/06 09:31:14;;;;;;;3.17;1.98;;;;;;;;;;7300150;19;140639;-80
2023/07/06 09:33:44;;;;;;;4.03;1.70;;;;;;;;;;7303234;19;141801;-79
2023/07/06 09:36:23;;;;;;;2.78;1.83;;;;;;;;;;7301051;19;141262;-78
2023/07/06 09:39:09;;;;;;;2.13;1.92;;;;;;;;;;7303859;19;140475;-78
2023/07/06 09:41:44;;;;;;;3.15;1.98;;;;;;;;;;7302661;19;140358;-79
2023/07/06 09:44:31;;;;;;;2.13;1.92;;;;;;;;;;7301032;19;142808;-77
2023/07/06 09:46:59;;;;;;;2.05;1.67;;;;;;;;;;7302817;19;140712;-77
2023/07/06 09:49:35;;;;;;;2.63;1.80;;;;;;;;;;7302700;19;140728;-78
2023/07/06 09:52:08;;;;;;;1.90;1.75;;;;;;;;;;7302756;19;140862;-77
2023/07/06 09:54:54;;;;;;;2.80;1.80;;;;;;;;;;7300697;19;142017;-80
2023/07/06 09:57:24;;;;;;;4.10;1.80;;;;;;;;;;7301656;19;140925;-81
2023/07/06 09:59:52;;;;;;;2.42;1.95;;;;;;;;;;7302080;19;140416;-81
2023/07/06 10:02:47;;;;;;;2.10;1.60;;;;;;;;;;7301102;19;141615;-79
2023/07/06 10:05:16;;;;;;;3.80;1.90;;;;;;;;;;7301053;19;141826;-78
2023/07/06 10:08:11;;;;;;;1.92;1.80;;;;;;;;;;7303297;19;140623;-80
2023/07/06 10:10:44;;;;;;;2.95;1.88;;;;;;;;;;7299928;19;142701;-83
2023/07/06 10:13:34;;;;;;;2.58;2.05;;;;;;;;;;7302000;19;141098;-83
2023/07/06 10:19:29;;;;;;;2.05;1.77;;;;;;;;;;7304196;19;140836;-78
2023/07/06 10:22:05;;;;;;;2.85;1.73;;;;;;;;;;7305973;19;140645;-79
2023/07/06 10:24:45;;;;;;;1.90;1.70;;;;;;;;;;7302250;19;141725;-76
2023/07/06 10:27:27;;;;;;;3.40;1.90;;;;;;;;;;7302427;19;142284;-78
2023/07/06 10:30:03;;;;;;;1.90;1.70;;;;;;;;;;7299552;19;140580;-82
2023/07/06 10:32:37;;;;;;;1.95;1.80;;;;;;;;;;7300919;19;140767;-79
2023/07/06 10:35:25;;;;;;;2.65;1.90;;;;;;;;;;7302066;19;140794;-76
2023/07/06 10:37:54;;;;;;;2.83;1.83;;;;;;;;;;7301842;19;141177;-78
2023/07/06 10:40:25;;;;;;;1.90;1.80;;;;;;;;;;7302044;19;140551;-78
2023/07/06 10:43:21;;;;;;;3.30;1.70;;;;;;;;;;7301264;19;141016;-80
2023/07/06 10:45:59;;;;;;;2.60;1.90;;;;;;;;;;7299237;19;140614;-81
2023/07/06 10:48:28;;;;;;;3.38;1.80;;;;;;;;;;7299720;19;141816;-80
2023/07/06 10:50:55;;;;;;;4.40;2.17;;;;;;;;;;7301064;19;140659;-81
2023/07/06 10:53:39;;;;;;;2.97;2.10;;;;;;;;;;7301526;19;140370;-81
2023/07/06 10:56:20;;;;;;;1.92;1.73;;;;;;;;;;7300528;19;141748;-83
2023/07/06 10:58:57;;;;;;;3.40;2.17;;;;;;;;;;7298206;19;141964;-81
2023/07/06 11:01:40;;;;;;;2.38;2.13;;;;;;;;;;7299856;19;140751;-79
2023/07/06 11:04:40;;;;;;;2.67;2.17;;;;;;;;;;7299487;19;140630;-80
2023/07/06 11:07:09;;;;;;;3.83;2.60;;;;;;;;;;7298773;19;141139;-80
2023/07/06 11:10:06;;;;;;;4.05;2.88;;;;;;;;;;7300017;19;142090;-79
2023/07/06 11:13:10;;;;;;;4.20;2.60;;;;;;;;;;7300786;19;140805;-79
2023/07/06 11:15:44;;;;;;;4.47;2.83;;;;;;;;;;7299207;19;140593;-79
2023/07/06 11:18:29;;;;;;;4.07;2.65;;;;;;;;;;7300054;19;141164;-80
2023/07/06 11:21:02;;;;;;;3.33;2.67;;;;;;;;;;7298869;19;140896;-82
2023/07/06 11:23:41;;;;;;;3.08;2.72;;;;;;;;;;7301332;19;140487;-78
2023/07/06 11:26:34;;;;;;;5.18;2.72;;;;;;;;;;7300130;19;140506;-78
2023/07/06 11:29:03;;;;;;;3.03;2.70;;;;;;;;;;7299794;19;141386;-79
2023/07/06 11:31:40;;;;;;;3.45;2.63;;;;;;;;;;7299456;19;141008;-80
2023/07/06 11:34:35;;;;;;;4.60;3.20;;;;;;;;;;7300002;19;141238;-79
2023/07/06 11:37:14;;;;;;;4.82;3.20;;;;;;;;;;7300377;19;140563;-79
2023/07/06 11:39:50;;;;;;;4.43;3.10;;;;;;;;;;7299590;19;140716;-79
2023/07/06 11:42:29;;;;;;;4.18;3.28;;;;;;;;;;7297988;19;142148;-82
2023/07/06 11:45:03;;;;;;;4.30;3.20;;;;;;;;;;7298037;19;140505;-78
2023/07/06 11:47:53;;;;;;;4.65;3.33;;;;;;;;;;7298619;19;140875;-77
2023/07/06 11:50:34;;;;;;;3.78;3.10;;;;;;;;;;7299625;19;141771;-86
2023/07/06 11:53:10;;;;;;;3.38;3.05;;;;;;;;;;7299688;19;141970;-84
2023/07/06 11:58:54;;;;;;;4.55;3.63;;;;;;;;;;7298574;19;140541;-82
2023/07/06 12:04:39;;;;;;;5.20;3.75;;;;;;;;;;7300021;19;140652;-78
2023/07/06 12:07:26;;;;;;;5.63;3.53;;;;;;;;;;7298931;19;141409;-76
2023/07/06 12:09:54;;;;;;;6.35;3.75;;;;;;;;;;7299328;19;141294;-75
2023/07/06 12:12:23;;;;;;;4.75;3.65;;;;;;;;;;7304805;19;140823;-74
2023/07/06 12:14:55;;;;;;;6.32;3.65;;;;;;;;;;7303594;19;142666;-74
2023/07/06 12:17:23;;;;;;;4.20;3.42;;;;;;;;;;7306623;19;140659;-74
2023/07/06 12:19:58;;;;;;;4.95;3.45;;;;;;;;;;7306792;19;140820;-74
2023/07/06 12:22:26;;;;;;;4.57;3.35;;;;;;;;;;7307915;19;141456;-74
2023/07/06 12:24:55;;;;;;;4.82;3.63;;;;;;;;;;7305894;19;142183;-82
2023/07/06 12:30:07;;;;;;;6.47;3.55;;;;;;;;;;7306152;19;141942;-80
2023/07/06 12:32:34;;;;;;;3.40;3.10;;;;;;;;;;7305812;19;142063;-80
2023/07/06 12:35:04;;;;;;;3.90;3.22;;;;;;;;;;7307257;19;142922;-80
2023/07/06 12:37:31;;;;;;;5.28;3.47;;;;;;;;;;7309087;19;140406;-80
2023/07/06 12:40:00;;;;;;;5.05;3.35;;;;;;;;;;7315967;19;140667;-80
2023/07/06 12:42:28;;;;;;;4.35;3.30;;;;;;;;;;7318718;19;140573;-81
2023/07/06 12:44:57;;;;;;;4.00;3.38;;;;;;;;;;7313950;19;142070;-80
2023/07/06 12:47:36;;;;;;;6.00;3.80;;;;;;;;;;7314954;19;140511;-77
2023/07/06 12:50:26;;;;;;;7.10;3.72;;;;;;;;;;7308461;19;141217;-76
2023/07/06 12:53:15;;;;;;;4.57;3.40;;;;;;;;;;7306340;19;140837;-79
2023/07/06 12:55:45;;;;;;;4.28;3.38;;;;;;;;;;7303356;19;142781;-79
2023/07/06 12:58:13;;;;;;;;;;;;;;;;;;7305261;19;140842;-76
2023/07/06 13:00:40;;;;;;;5.18;3.28;;;;;;;;;;7304983;19;140505;-78
2023/07/06 13:03:10;;;;;;;4.60;3.55;;;;;;;;;;7304657;19;140802;-78
2023/07/06 13:05:37;;;;;;;3.90;3.50;;;;;;;;;;7304430;19;141920;-79
2023/07/06 13:08:13;;;;;;;4.60;3.30;;;;;;;;;;7306501;19;140690;-78
2023/07/06 13:10:44;;;;;;;6.47;3.85;;;;;;;;;;7304339;19;140664;-79
2023/07/06 13:13:18;;;;;;;;;;;;;;;;;;7304606;19;141311;-77
2023/07/06 13:15:45;;;;;;;6.47;4.18;;;;;;;;;;7303248;19;152294;-78
2023/07/06 13:18:16;;;;;;;4.40;3.67;;;;;;;;;;7303679;19;140542;-78
2023/07/06 13:20:50;;;;;;;5.95;3.90;;;;;;;;;;7303021;19;140560;-78
2023/07/06 13:23:19;;;;;;;5.85;3.88;;;;;;;;;;7300848;19;141295;-78
2023/07/06 13:25:49;;;;;;;5.13;3.60;;;;;;;;;;7302424;19;142017;-78
2023/07/06 13:28:20;;;;;;;5.90;4.18;;;;;;;;;;7304241;19;140773;-77
2023/07/06 13:30:49;;;;;;;6.50;4.10;;;;;;;;;;7303800;19;140652;-78
2023/07/06 13:33:18;;;;;;;4.20;3.63;;;;;;;;;;7303160;19;140603;-77
2023/07/06 13:35:46;;;;;;;5.95;4.22;;;;;;;;;;7300533;19;143037;-78
2023/07/06 13:38:14;;;;;;;5.30;3.70;;;;;;;;;;7303876;19;140614;-76
2023/07/06 13:40:42;;;;;;;5.47;3.60;;;;;;;;;;7303543;19;140618;-77
2023/07/06 13:43:15;;;;;;;5.55;3.47;;;;;;;;;;7303292;19;141744;-77
2023/07/06 13:45:43;;;;;;;5.68;3.80;;;;;;;;;;7301936;19;141507;-76
2023/07/06 13:48:15;;;;;;;5.47;3.95;;;;;;;;;;7302626;19;141888;-79
2023/07/06 13:50:42;;;;;;;4.60;3.55;;;;;;;;;;7301683;19;140829;-76
2023/07/06 13:53:11;;;;;;;4.55;3.42;;;;;;;;;;7302607;19;142352;-79
2023/07/06 13:55:53;;;;;;;4.28;3.47;;;;;;;;;;7300000;19;141990;-79
2023/07/06 13:58:25;;;;;;;6.55;3.42;;;;;;;;;;7302059;19;140510;-78
2023/07/06 14:00:52;;;;;;;;;;;;;;;;;;7301823;19;141240;-80
2023/07/06 14:03:23;;;;;;;4.85;3.65;;;;;;;;;;7303405;19;140956;-81
2023/07/06 14:05:51;;;;;;;5.53;3.35;;;;;;;;;;7300845;19;141835;-79
2023/07/06 14:08:24;;;;;;;4.60;3.30;;;;;;;;;;7302986;19;140842;-83
2023/07/06 14:10:54;;;;;;;6.07;3.50;;;;;;;;;;7301006;19;140602;-79
2023/07/06 14:13:24;;;;;;;5.40;3.70;;;;;;;;;;7301935;19;141259;-80
2023/07/06 14:15:51;;;;;;;3.42;3.03;;;;;;;;;;7299947;19;141516;-82
2023/07/06 14:18:20;;;;;;;4.78;3.20;;;;;;;;;;7301467;19;140630;-79
2023/07/06 14:20:47;;;;;;;4.22;3.20;;;;;;;;;;7300030;19;140773;-80
2023/07/06 14:23:17;;;;;;;4.88;3.45;;;;;;;;;;7302261;19;143167;-81
2023/07/06 14:25:46;;;;;;;5.38;3.30;;;;;;;;;;7301794;19;142011;-80
2023/07/06 14:28:18;;;;;;;6.60;3.38;;;;;;;;;;7300074;19;141439;-75
2023/07/06 14:30:48;;;;;;;5.18;3.40;;;;;;;;;;7301902;19;140660;-77
2023/07/06 14:33:18;;;;;;;4.18;3.10;;;;;;;;;;7300359;19;141761;-74
2023/07/06 14:35:45;;;;;;;3.80;2.97;;;;;;;;;;7300954;19;142814;-76
2023/07/06 14:38:13;;;;;;;4.38;3.03;;;;;;;;;;7301705;19;140616;-78
2023/07/06 14:40:40;;;;;;;4.10;3.03;;;;;;;;;;7301704;19;140918;-78
2023/07/06 14:43:08;;;;;;;6.03;3.28;;;;;;;;;;7300262;19;140653;-80
2023/07/06 14:45:36;;;;;;;10.18;3.38;;;;;;;;;;7298138;19;141861;-77
2023/07/06 14:48:06;;;;;;;5.13;3.67;;;;;;;;;;7300124;19;141040;-76
2023/07/06 14:50:34;;;;;;;5.88;3.05;;;;;;;;;;7299434;19;140634;-77
2023/07/06 14:53:01;;;;;;;4.47;3.08;;;;;;;;;;7298567;19;141356;-78
2023/07/06 14:55:29;;;;;;;3.80;3.40;;;;;;;;;;7301288;19;140684;-77
2023/07/06 14:58:00;;;;;;;4.97;3.30;;;;;;;;;;7300569;19;140362;-78
2023/07/06 15:00:27;;;;;;;5.03;3.40;;;;;;;;;;7300397;19;140674;-77
2023/07/06 15:02:55;;;;;;;5.82;3.47;;;;;;;;;;7300748;19;141462;-77
2023/07/06 15:05:22;;;;;;;5.25;3.55;;;;;;;;;;7300294;19;141843;-77
2023/07/06 15:07:49;;;;;;;4.65;3.50;;;;;;;;;;7301159;19;140444;-77
2023/07/06 15:10:16;;;;;;;3.88;3.08;;;;;;;;;;7300526;19;140957;-76